sensor_id;sensor_type;location;lat;lon;timestamp;temperature;humidity
6421;DHT22;3243;50.958;7.012;2023-02-28T00:01:13;0.20;99.90
6421;DHT22;3243;50.958;7.012;2023-02-28T00:06:08;0.00;99.90
6421;DHT22;3243;50.958;7.012;2023-02-28T00:08:38;-0.10;99.90
6421;DHT22;3243;50.958;7.012;2023-02-28T00:11:08;-0.10;99.90
6421;DHT22;3243;50.958;7.012;2023-02-28T00:13:40;-0.10;99.90
6421;DHT22;3243;50.958;7.012;2023-02-28T00:16:09;-0.10;99.90
6421;DHT22;3243;50.958;7.012;2023-02-28T00:18:37;-0.10;99.90
6421;DHT22;3243;50.958;7.012;2023-02-28T00:21:05;0.00;99.90
6421;DHT22;3243;50.958;7.012;2023-02-28T00:25:59;0.00;99.90
6421;DHT22;3243;50.958;7.012;2023-02-28T00:30:53;0.00;99.90
6421;DHT22;3243;50.958;7.012;2023-02-28T00:35:47;0.20;99.90
6421;DHT22;3243;50.958;7.012;2023-02-28T00:40:42;0.30;99.90
6421;DHT22;3243;50.958;7.012;2023-02-28T00:57:52;0.30;99.90
6421;DHT22;3243;50.958;7.012;2023-02-28T01:00:19;0.30;99.90
6421;DHT22;3243;50.958;7.012;2023-02-28T01:10:08;0.30;99.90
6421;DHT22;3243;50.958;7.012;2023-02-28T01:12:35;0.30;99.90
6421;DHT22;3243;50.958;7.012;2023-02-28T01:37:06;0.20;99.90
6421;DHT22;3243;50.958;7.012;2023-02-28T01:47:38;0.10;99.90
6421;DHT22;3243;50.958;7.012;2023-02-28T01:50:12;0.10;99.90
6421;DHT22;3243;50.958;7.012;2023-02-28T01:52:40;0.10;99.90
6421;DHT22;3243;50.958;7.012;2023-02-28T01:55:10;0.00;99.90
6421;DHT22;3243;50.958;7.012;2023-02-28T01:57:43;0.10;99.90
6421;DHT22;3243;50.958;7.012;2023-02-28T02:00:15;0.00;99.90
6421;DHT22;3243;50.958;7.012;2023-02-28T02:02:44;0.00;99.90
6421;DHT22;3243;50.958;7.012;2023-02-28T02:05:23;-0.10;99.90
6421;DHT22;3243;50.958;7.012;2023-02-28T02:07:54;0.00;99.90
6421;DHT22;3243;50.958;7.012;2023-02-28T02:10:30;0.00;99.90
6421;DHT22;3243;50.958;7.012;2023-02-28T02:13:08;-0.10;99.90
6421;DHT22;3243;50.958;7.012;2023-02-28T02:29:26;-0.10;99.90
6421;DHT22;3243;50.958;7.012;2023-02-28T02:37:37;0.00;99.90
6421;DHT22;3243;50.958;7.012;2023-02-28T02:40:19;0.00;99.90
6421;DHT22;3243;50.958;7.012;2023-02-28T02:45:55;0.00;99.90
6421;DHT22;3243;50.958;7.012;2023-02-28T02:48:26;-0.10;99.90
6421;DHT22;3243;50.958;7.012;2023-02-28T02:50:57;-0.10;99.90
6421;DHT22;3243;50.958;7.012;2023-02-28T02:53:33;-0.20;99.90
6421;DHT22;3243;50.958;7.012;2023-02-28T02:56:02;-0.20;99.90
6421;DHT22;3243;50.958;7.012;2023-02-28T02:58:32;-0.20;99.90
6421;DHT22;3243;50.958;7.012;2023-02-28T03:01:02;-0.30;99.90
6421;DHT22;3243;50.958;7.012;2023-02-28T03:03:31;-0.30;99.90
6421;DHT22;3243;50.958;7.012;2023-02-28T03:06:00;-0.30;99.90
6421;DHT22;3243;50.958;7.012;2023-02-28T03:08:30;-0.30;99.90
6421;DHT22;3243;50.958;7.012;2023-02-28T03:11:05;-0.40;99.90
6421;DHT22;3243;50.958;7.012;2023-02-28T03:27:09;-0.60;99.90
6421;DHT22;3243;50.958;7.012;2023-02-28T03:29:47;-0.60;99.90
6421;DHT22;3243;50.958;7.012;2023-02-28T03:32:29;-0.60;99.90
6421;DHT22;3243;50.958;7.012;2023-02-28T03:35:02;-0.60;99.90
6421;DHT22;3243;50.958;7.012;2023-02-28T03:37:34;-0.60;99.90
6421;DHT22;3243;50.958;7.012;2023-02-28T03:40:08;-0.50;99.90
6421;DHT22;3243;50.958;7.012;2023-02-28T03:42:40;-0.50;99.90
6421;DHT22;3243;50.958;7.012;2023-02-28T03:45:15;-0.50;99.90
6421;DHT22;3243;50.958;7.012;2023-02-28T03:50:30;-0.50;99.90
6421;DHT22;3243;50.958;7.012;2023-02-28T03:53:13;-0.50;99.90
6421;DHT22;3243;50.958;7.012;2023-02-28T03:55:45;-0.50;99.90
6421;DHT22;3243;50.958;7.012;2023-02-28T04:00:54;-0.40;99.90
6421;DHT22;3243;50.958;7.012;2023-02-28T04:03:22;-0.60;99.90
6421;DHT22;3243;50.958;7.012;2023-02-28T04:05:52;-0.60;99.90
6421;DHT22;3243;50.958;7.012;2023-02-28T04:08:20;-0.50;99.90
6421;DHT22;3243;50.958;7.012;2023-02-28T04:11:16;-0.40;99.90
6421;DHT22;3243;50.958;7.012;2023-02-28T04:13:37;-0.50;99.90
6421;DHT22;3243;50.958;7.012;2023-02-28T04:16:07;-0.40;99.90
6421;DHT22;3243;50.958;7.012;2023-02-28T04:18:50;-0.40;99.90
6421;DHT22;3243;50.958;7.012;2023-02-28T04:21:16;-0.50;99.90
6421;DHT22;3243;50.958;7.012;2023-02-28T04:23:47;-0.40;99.90
6421;DHT22;3243;50.958;7.012;2023-02-28T04:26:13;-0.50;99.90
6421;DHT22;3243;50.958;7.012;2023-02-28T04:28:40;-0.50;99.90
6421;DHT22;3243;50.958;7.012;2023-02-28T04:31:07;-0.60;99.90
6421;DHT22;3243;50.958;7.012;2023-02-28T04:33:34;-0.50;99.90
6421;DHT22;3243;50.958;7.012;2023-02-28T04:36:08;-0.50;99.90
6421;DHT22;3243;50.958;7.012;2023-02-28T04:38:37;-0.50;99.90
6421;DHT22;3243;50.958;7.012;2023-02-28T04:41:04;-0.60;99.90
6421;DHT22;3243;50.958;7.012;2023-02-28T04:43:32;-0.60;99.90
6421;DHT22;3243;50.958;7.012;2023-02-28T04:46:02;-0.60;99.90
6421;DHT22;3243;50.958;7.012;2023-02-28T04:48:30;-0.50;99.90
6421;DHT22;3243;50.958;7.012;2023-02-28T04:51:05;-0.60;99.90
6421;DHT22;3243;50.958;7.012;2023-02-28T04:53:32;-0.50;99.90
6421;DHT22;3243;50.958;7.012;2023-02-28T04:55:59;-0.50;99.90
6421;DHT22;3243;50.958;7.012;2023-02-28T04:58:26;-0.50;99.90
6421;DHT22;3243;50.958;7.012;2023-02-28T05:01:02;-0.50;99.90
6421;DHT22;3243;50.958;7.012;2023-02-28T05:03:29;-0.50;99.90
6421;DHT22;3243;50.958;7.012;2023-02-28T05:05:55;-0.50;99.90
6421;DHT22;3243;50.958;7.012;2023-02-28T05:08:22;-0.40;99.90
6421;DHT22;3243;50.958;7.012;2023-02-28T05:10:49;-0.40;99.90
6421;DHT22;3243;50.958;7.012;2023-02-28T05:13:16;-0.50;99.90
6421;DHT22;3243;50.958;7.012;2023-02-28T05:15:42;-0.50;99.90
6421;DHT22;3243;50.958;7.012;2023-02-28T05:18:09;-0.50;99.90
6421;DHT22;3243;50.958;7.012;2023-02-28T05:20:36;-0.50;99.90
6421;DHT22;3243;50.958;7.012;2023-02-28T05:23:04;-0.50;99.90
6421;DHT22;3243;50.958;7.012;2023-02-28T05:25:30;-0.50;99.90
6421;DHT22;3243;50.958;7.012;2023-02-28T05:27:57;-0.50;99.90
6421;DHT22;3243;50.958;7.012;2023-02-28T05:30:24;-0.60;99.90
6421;DHT22;3243;50.958;7.012;2023-02-28T05:32:51;-0.60;99.90
6421;DHT22;3243;50.958;7.012;2023-02-28T05:35:18;-0.60;99.90
6421;DHT22;3243;50.958;7.012;2023-02-28T05:37:45;-0.50;99.90
6421;DHT22;3243;50.958;7.012;2023-02-28T05:40:12;-0.60;99.90
6421;DHT22;3243;50.958;7.012;2023-02-28T05:42:38;-0.50;99.90
6421;DHT22;3243;50.958;7.012;2023-02-28T05:45:06;-0.50;99.90
6421;DHT22;3243;50.958;7.012;2023-02-28T05:47:33;-0.50;99.90
6421;DHT22;3243;50.958;7.012;2023-02-28T05:50:01;-0.50;99.90
6421;DHT22;3243;50.958;7.012;2023-02-28T05:52:28;-0.50;99.90
6421;DHT22;3243;50.958;7.012;2023-02-28T05:54:56;-0.50;99.90
6421;DHT22;3243;50.958;7.012;2023-02-28T05:57:23;-0.50;99.90
6421;DHT22;3243;50.958;7.012;2023-02-28T05:59:50;-0.50;99.90
6421;DHT22;3243;50.958;7.012;2023-02-28T06:02:17;-0.60;99.90
6421;DHT22;3243;50.958;7.012;2023-02-28T06:04:44;-0.60;99.90
6421;DHT22;3243;50.958;7.012;2023-02-28T06:07:11;-0.60;99.90
6421;DHT22;3243;50.958;7.012;2023-02-28T06:09:41;-0.60;99.90
6421;DHT22;3243;50.958;7.012;2023-02-28T06:12:09;-0.50;99.90
6421;DHT22;3243;50.958;7.012;2023-02-28T06:14:36;-0.60;99.90
6421;DHT22;3243;50.958;7.012;2023-02-28T06:17:03;-0.50;99.90
6421;DHT22;3243;50.958;7.012;2023-02-28T06:19:30;-0.50;99.90
6421;DHT22;3243;50.958;7.012;2023-02-28T06:21:57;-0.50;99.90
6421;DHT22;3243;50.958;7.012;2023-02-28T06:24:26;-0.50;99.90
6421;DHT22;3243;50.958;7.012;2023-02-28T06:26:54;-0.50;99.90
6421;DHT22;3243;50.958;7.012;2023-02-28T06:29:21;-0.50;99.90
6421;DHT22;3243;50.958;7.012;2023-02-28T06:31:48;-0.50;99.90
6421;DHT22;3243;50.958;7.012;2023-02-28T06:34:16;-0.50;99.90
6421;DHT22;3243;50.958;7.012;2023-02-28T06:36:43;-0.50;99.90
6421;DHT22;3243;50.958;7.012;2023-02-28T06:39:10;-0.50;99.90
6421;DHT22;3243;50.958;7.012;2023-02-28T06:41:37;-0.50;99.90
6421;DHT22;3243;50.958;7.012;2023-02-28T06:44:20;-0.40;99.90
6421;DHT22;3243;50.958;7.012;2023-02-28T06:46:48;-0.30;99.90
6421;DHT22;3243;50.958;7.012;2023-02-28T06:49:16;-0.30;99.90
6421;DHT22;3243;50.958;7.012;2023-02-28T06:51:44;-0.40;99.90
6421;DHT22;3243;50.958;7.012;2023-02-28T06:54:14;-0.30;99.90
6421;DHT22;3243;50.958;7.012;2023-02-28T06:56:40;-0.30;99.90
6421;DHT22;3243;50.958;7.012;2023-02-28T06:59:07;-0.30;99.90
6421;DHT22;3243;50.958;7.012;2023-02-28T07:01:34;-0.30;99.90
6421;DHT22;3243;50.958;7.012;2023-02-28T07:04:02;-0.30;99.90
6421;DHT22;3243;50.958;7.012;2023-02-28T07:06:29;-0.30;99.90
6421;DHT22;3243;50.958;7.012;2023-02-28T07:08:55;-0.20;99.90
6421;DHT22;3243;50.958;7.012;2023-02-28T07:11:25;-0.20;99.90
6421;DHT22;3243;50.958;7.012;2023-02-28T07:13:56;-0.10;99.90
6421;DHT22;3243;50.958;7.012;2023-02-28T07:16:24;-0.10;99.90
6421;DHT22;3243;50.958;7.012;2023-02-28T07:18:54;-0.10;99.90
6421;DHT22;3243;50.958;7.012;2023-02-28T07:21:21;0.00;99.90
6421;DHT22;3243;50.958;7.012;2023-02-28T07:23:49;0.10;99.90
6421;DHT22;3243;50.958;7.012;2023-02-28T07:26:17;0.10;99.90
6421;DHT22;3243;50.958;7.012;2023-02-28T07:28:46;0.20;99.90
6421;DHT22;3243;50.958;7.012;2023-02-28T07:31:13;0.30;99.90
6421;DHT22;3243;50.958;7.012;2023-02-28T07:33:41;0.40;99.90
6421;DHT22;3243;50.958;7.012;2023-02-28T07:36:10;0.40;99.90
6421;DHT22;3243;50.958;7.012;2023-02-28T07:38:43;0.50;99.90
6421;DHT22;3243;50.958;7.012;2023-02-28T07:41:15;0.50;99.90
6421;DHT22;3243;50.958;7.012;2023-02-28T07:43:42;0.60;99.90
6421;DHT22;3243;50.958;7.012;2023-02-28T07:46:10;0.60;99.90
6421;DHT22;3243;50.958;7.012;2023-02-28T07:48:38;0.70;99.90
6421;DHT22;3243;50.958;7.012;2023-02-28T07:51:05;0.80;99.90
6421;DHT22;3243;50.958;7.012;2023-02-28T07:53:32;0.90;99.90
6421;DHT22;3243;50.958;7.012;2023-02-28T07:56:01;0.90;99.90
6421;DHT22;3243;50.958;7.012;2023-02-28T07:58:29;0.90;99.90
6421;DHT22;3243;50.958;7.012;2023-02-28T08:00:56;1.00;99.90
6421;DHT22;3243;50.958;7.012;2023-02-28T08:03:24;1.10;99.90
6421;DHT22;3243;50.958;7.012;2023-02-28T08:05:51;1.10;99.90
6421;DHT22;3243;50.958;7.012;2023-02-28T08:08:19;1.20;99.90
6421;DHT22;3243;50.958;7.012;2023-02-28T08:10:45;1.20;99.90
6421;DHT22;3243;50.958;7.012;2023-02-28T08:13:12;1.30;99.90
6421;DHT22;3243;50.958;7.012;2023-02-28T08:15:41;1.40;99.90
6421;DHT22;3243;50.958;7.012;2023-02-28T08:18:09;1.50;99.90
6421;DHT22;3243;50.958;7.012;2023-02-28T08:20:36;1.60;99.90
6421;DHT22;3243;50.958;7.012;2023-02-28T08:23:03;1.70;99.90
6421;DHT22;3243;50.958;7.012;2023-02-28T08:25:30;1.80;99.90
6421;DHT22;3243;50.958;7.012;2023-02-28T08:27:56;1.80;99.90
6421;DHT22;3243;50.958;7.012;2023-02-28T08:30:23;1.90;88.30
6421;DHT22;3243;50.958;7.012;2023-02-28T08:32:50;2.00;6.10
6421;DHT22;3243;50.958;7.012;2023-02-28T08:35:17;2.10;1.00
6421;DHT22;3243;50.958;7.012;2023-02-28T08:37:43;2.10;1.00
6421;DHT22;3243;50.958;7.012;2023-02-28T08:40:10;2.20;1.00
6421;DHT22;3243;50.958;7.012;2023-02-28T08:42:39;2.30;1.00
6421;DHT22;3243;50.958;7.012;2023-02-28T08:45:06;2.40;1.00
6421;DHT22;3243;50.958;7.012;2023-02-28T08:47:33;2.40;1.00
6421;DHT22;3243;50.958;7.012;2023-02-28T08:50:00;2.50;1.00
6421;DHT22;3243;50.958;7.012;2023-02-28T08:52:27;2.60;1.00
6421;DHT22;3243;50.958;7.012;2023-02-28T08:54:53;2.60;1.00
6421;DHT22;3243;50.958;7.012;2023-02-28T08:57:20;2.60;1.00
6421;DHT22;3243;50.958;7.012;2023-02-28T08:59:47;2.70;1.00
6421;DHT22;3243;50.958;7.012;2023-02-28T09:02:14;2.70;1.00
6421;DHT22;3243;50.958;7.012;2023-02-28T09:04:41;2.80;1.00
6421;DHT22;3243;50.958;7.012;2023-02-28T09:14:29;3.10;1.00
6421;DHT22;3243;50.958;7.012;2023-02-28T09:29:30;3.30;1.00
6421;DHT22;3243;50.958;7.012;2023-02-28T09:34:26;3.30;1.00
6421;DHT22;3243;50.958;7.012;2023-02-28T09:39:22;3.50;1.00
6421;DHT22;3243;50.958;7.012;2023-02-28T09:41:53;3.50;1.00
6421;DHT22;3243;50.958;7.012;2023-02-28T09:49:58;3.50;21.40
6421;DHT22;3243;50.958;7.012;2023-02-28T09:52:31;3.60;99.90
6421;DHT22;3243;50.958;7.012;2023-02-28T09:55:21;3.60;99.90
6421;DHT22;3243;50.958;7.012;2023-02-28T09:57:50;3.60;99.90
6421;DHT22;3243;50.958;7.012;2023-02-28T10:00:36;3.70;99.90
6421;DHT22;3243;50.958;7.012;2023-02-28T10:05:59;3.70;99.90
6421;DHT22;3243;50.958;7.012;2023-02-28T10:11:07;3.80;99.90
6421;DHT22;3243;50.958;7.012;2023-02-28T10:13:35;3.70;99.90
6421;DHT22;3243;50.958;7.012;2023-02-28T10:16:26;3.80;99.90
6421;DHT22;3243;50.958;7.012;2023-02-28T10:19:11;3.70;99.90
6421;DHT22;3243;50.958;7.012;2023-02-28T10:21:59;3.70;10.90
6421;DHT22;3243;50.958;7.012;2023-02-28T10:24:28;3.90;60.40
6421;DHT22;3243;50.958;7.012;2023-02-28T10:26:59;4.00;99.90
6421;DHT22;3243;50.958;7.012;2023-02-28T10:29:28;4.10;99.90
6421;DHT22;3243;50.958;7.012;2023-02-28T10:34:24;4.10;99.90
6421;DHT22;3243;50.958;7.012;2023-02-28T10:36:51;4.10;99.90
6421;DHT22;3243;50.958;7.012;2023-02-28T10:39:42;4.20;99.90
6421;DHT22;3243;50.958;7.012;2023-02-28T10:44:45;4.20;99.90
6421;DHT22;3243;50.958;7.012;2023-02-28T10:47:16;4.20;99.90
6421;DHT22;3243;50.958;7.012;2023-02-28T10:49:50;4.30;99.90
6421;DHT22;3243;50.958;7.012;2023-02-28T10:52:37;4.30;99.90
6421;DHT22;3243;50.958;7.012;2023-02-28T10:55:34;4.30;99.90
6421;DHT22;3243;50.958;7.012;2023-02-28T10:58:01;4.30;99.90
6421;DHT22;3243;50.958;7.012;2023-02-28T11:00:35;4.10;99.90
6421;DHT22;3243;50.958;7.012;2023-02-28T11:03:01;4.20;99.90
6421;DHT22;3243;50.958;7.012;2023-02-28T11:08:16;4.50;99.90
6421;DHT22;3243;50.958;7.012;2023-02-28T11:10:48;4.80;99.90
6421;DHT22;3243;50.958;7.012;2023-02-28T11:13:21;4.90;99.90
6421;DHT22;3243;50.958;7.012;2023-02-28T11:15:54;5.10;99.90
6421;DHT22;3243;50.958;7.012;2023-02-28T11:18:22;5.00;99.90
6421;DHT22;3243;50.958;7.012;2023-02-28T11:20:53;5.10;99.90
6421;DHT22;3243;50.958;7.012;2023-02-28T11:23:21;5.10;99.90
6421;DHT22;3243;50.958;7.012;2023-02-28T11:25:52;5.20;99.90
6421;DHT22;3243;50.958;7.012;2023-02-28T11:28:34;5.10;99.90
6421;DHT22;3243;50.958;7.012;2023-02-28T11:33:47;5.00;99.90
6421;DHT22;3243;50.958;7.012;2023-02-28T11:36:26;5.10;99.90
6421;DHT22;3243;50.958;7.012;2023-02-28T11:39:16;5.10;99.90
6421;DHT22;3243;50.958;7.012;2023-02-28T11:42:19;5.30;99.90
6421;DHT22;3243;50.958;7.012;2023-02-28T11:45:07;5.30;99.90
6421;DHT22;3243;50.958;7.012;2023-02-28T11:48:02;5.50;99.90
6421;DHT22;3243;50.958;7.012;2023-02-28T11:50:54;5.50;99.90
6421;DHT22;3243;50.958;7.012;2023-02-28T11:56:47;5.50;99.90
6421;DHT22;3243;50.958;7.012;2023-02-28T12:04:45;5.60;99.90
6421;DHT22;3243;50.958;7.012;2023-02-28T12:18:05;5.30;99.90
6421;DHT22;3243;50.958;7.012;2023-02-28T12:28:51;5.10;99.90
6421;DHT22;3243;50.958;7.012;2023-02-28T12:31:20;5.30;99.90
6421;DHT22;3243;50.958;7.012;2023-02-28T12:33:53;5.30;99.90
6421;DHT22;3243;50.958;7.012;2023-02-28T12:36:22;5.40;99.90
6421;DHT22;3243;50.958;7.012;2023-02-28T12:38:55;5.40;99.90
6421;DHT22;3243;50.958;7.012;2023-02-28T12:41:31;5.50;99.90
6421;DHT22;3243;50.958;7.012;2023-02-28T12:44:06;5.50;99.90
6421;DHT22;3243;50.958;7.012;2023-02-28T12:46:58;5.50;99.90
6421;DHT22;3243;50.958;7.012;2023-02-28T12:49:33;5.50;99.90
6421;DHT22;3243;50.958;7.012;2023-02-28T12:52:02;5.60;99.90
6421;DHT22;3243;50.958;7.012;2023-02-28T12:54:56;5.60;99.90
6421;DHT22;3243;50.958;7.012;2023-02-28T13:00:15;5.60;99.90
6421;DHT22;3243;50.958;7.012;2023-02-28T13:13:45;5.60;99.90
6421;DHT22;3243;50.958;7.012;2023-02-28T13:16:12;5.70;99.90
6421;DHT22;3243;50.958;7.012;2023-02-28T13:18:43;5.80;99.90
6421;DHT22;3243;50.958;7.012;2023-02-28T13:21:28;5.90;99.90
6421;DHT22;3243;50.958;7.012;2023-02-28T13:24:01;5.80;99.90
6421;DHT22;3243;50.958;7.012;2023-02-28T13:34:33;6.00;99.90
6421;DHT22;3243;50.958;7.012;2023-02-28T13:39:54;6.00;99.90
6421;DHT22;3243;50.958;7.012;2023-02-28T13:47:42;6.00;99.90
6421;DHT22;3243;50.958;7.012;2023-02-28T13:50:32;6.10;99.90
6421;DHT22;3243;50.958;7.012;2023-02-28T14:07:00;6.10;99.90
6421;DHT22;3243;50.958;7.012;2023-02-28T14:09:35;6.10;99.90
6421;DHT22;3243;50.958;7.012;2023-02-28T14:20:40;6.10;99.90
6421;DHT22;3243;50.958;7.012;2023-02-28T14:26:01;6.10;99.90
6421;DHT22;3243;50.958;7.012;2023-02-28T14:31:10;6.20;99.90
6421;DHT22;3243;50.958;7.012;2023-02-28T14:34:00;6.30;99.90
6421;DHT22;3243;50.958;7.012;2023-02-28T14:36:36;6.30;99.90
6421;DHT22;3243;50.958;7.012;2023-02-28T14:39:13;6.40;99.90
6421;DHT22;3243;50.958;7.012;2023-02-28T14:41:42;6.40;99.90
6421;DHT22;3243;50.958;7.012;2023-02-28T14:52:14;6.30;99.90
6421;DHT22;3243;50.958;7.012;2023-02-28T14:54:42;6.30;99.90
6421;DHT22;3243;50.958;7.012;2023-02-28T14:57:28;6.30;99.90
6421;DHT22;3243;50.958;7.012;2023-02-28T15:02:35;6.20;99.90
6421;DHT22;3243;50.958;7.012;2023-02-28T15:05:22;6.40;99.90
6421;DHT22;3243;50.958;7.012;2023-02-28T15:08:05;6.40;99.90
6421;DHT22;3243;50.958;7.012;2023-02-28T15:10:33;6.40;99.90
6421;DHT22;3243;50.958;7.012;2023-02-28T15:15:40;6.50;99.90
6421;DHT22;3243;50.958;7.012;2023-02-28T15:21:33;6.40;99.90
6421;DHT22;3243;50.958;7.012;2023-02-28T15:24:12;6.40;99.90
6421;DHT22;3243;50.958;7.012;2023-02-28T15:26:43;6.40;99.90
6421;DHT22;3243;50.958;7.012;2023-02-28T15:29:15;6.40;99.90
6421;DHT22;3243;50.958;7.012;2023-02-28T15:31:49;6.40;99.90
6421;DHT22;3243;50.958;7.012;2023-02-28T15:34:43;6.30;99.90
6421;DHT22;3243;50.958;7.012;2023-02-28T15:40:40;6.20;99.90
6421;DHT22;3243;50.958;7.012;2023-02-28T15:43:18;6.20;99.90
6421;DHT22;3243;50.958;7.012;2023-02-28T15:46:00;6.30;99.90
6421;DHT22;3243;50.958;7.012;2023-02-28T15:54:40;5.90;99.90
6421;DHT22;3243;50.958;7.012;2023-02-28T15:56:51;6.00;99.90
6421;DHT22;3243;50.958;7.012;2023-02-28T15:59:27;6.00;99.90
6421;DHT22;3243;50.958;7.012;2023-02-28T16:04:37;5.90;99.90
6421;DHT22;3243;50.958;7.012;2023-02-28T16:07:20;6.00;99.90
6421;DHT22;3243;50.958;7.012;2023-02-28T16:09:47;6.10;99.90
6421;DHT22;3243;50.958;7.012;2023-02-28T16:12:14;6.00;99.90
6421;DHT22;3243;50.958;7.012;2023-02-28T16:14:41;6.00;99.90
6421;DHT22;3243;50.958;7.012;2023-02-28T16:17:20;5.90;99.90
6421;DHT22;3243;50.958;7.012;2023-02-28T16:19:48;5.90;99.90
6421;DHT22;3243;50.958;7.012;2023-02-28T16:22:15;5.90;99.90
6421;DHT22;3243;50.958;7.012;2023-02-28T16:24:42;5.90;99.90
6421;DHT22;3243;50.958;7.012;2023-02-28T16:27:31;5.80;99.90
6421;DHT22;3243;50.958;7.012;2023-02-28T16:30:00;5.80;99.90
6421;DHT22;3243;50.958;7.012;2023-02-28T16:32:34;5.80;99.90
6421;DHT22;3243;50.958;7.012;2023-02-28T16:35:01;5.80;99.90
6421;DHT22;3243;50.958;7.012;2023-02-28T16:37:28;5.70;99.90
6421;DHT22;3243;50.958;7.012;2023-02-28T16:42:25;5.60;99.90
6421;DHT22;3243;50.958;7.012;2023-02-28T16:44:54;5.40;99.90
6421;DHT22;3243;50.958;7.012;2023-02-28T16:47:21;5.40;99.90
6421;DHT22;3243;50.958;7.012;2023-02-28T16:49:48;5.40;99.90
6421;DHT22;3243;50.958;7.012;2023-02-28T16:52:16;5.40;99.90
6421;DHT22;3243;50.958;7.012;2023-02-28T16:54:42;5.30;99.90
6421;DHT22;3243;50.958;7.012;2023-02-28T16:57:23;5.30;99.90
6421;DHT22;3243;50.958;7.012;2023-02-28T16:59:50;6.30;99.90
6421;DHT22;3243;50.958;7.012;2023-02-28T17:02:19;5.20;99.90
6421;DHT22;3243;50.958;7.012;2023-02-28T17:04:47;5.10;99.90
6421;DHT22;3243;50.958;7.012;2023-02-28T17:07:15;5.60;99.90
6421;DHT22;3243;50.958;7.012;2023-02-28T17:09:44;5.10;99.90
6421;DHT22;3243;50.958;7.012;2023-02-28T17:12:12;5.00;99.90
6421;DHT22;3243;50.958;7.012;2023-02-28T17:14:39;4.90;99.90
6421;DHT22;3243;50.958;7.012;2023-02-28T17:17:06;4.80;99.90
6421;DHT22;3243;50.958;7.012;2023-02-28T17:19:33;4.80;99.90
6421;DHT22;3243;50.958;7.012;2023-02-28T17:22:02;4.80;99.90
6421;DHT22;3243;50.958;7.012;2023-02-28T17:24:29;4.60;99.90
6421;DHT22;3243;50.958;7.012;2023-02-28T17:26:57;4.70;99.90
6421;DHT22;3243;50.958;7.012;2023-02-28T17:29:24;4.70;99.90
6421;DHT22;3243;50.958;7.012;2023-02-28T17:31:51;4.60;99.90
6421;DHT22;3243;50.958;7.012;2023-02-28T17:34:18;4.60;99.90
6421;DHT22;3243;50.958;7.012;2023-02-28T17:36:47;4.50;99.90
6421;DHT22;3243;50.958;7.012;2023-02-28T17:39:15;7.40;99.90
6421;DHT22;3243;50.958;7.012;2023-02-28T17:41:48;4.50;99.90
6421;DHT22;3243;50.958;7.012;2023-02-28T17:44:14;4.30;99.90
6421;DHT22;3243;50.958;7.012;2023-02-28T17:46:42;4.30;99.90
6421;DHT22;3243;50.958;7.012;2023-02-28T17:49:09;4.30;99.90
6421;DHT22;3243;50.958;7.012;2023-02-28T17:51:36;4.30;99.90
6421;DHT22;3243;50.958;7.012;2023-02-28T17:54:03;4.30;99.90
6421;DHT22;3243;50.958;7.012;2023-02-28T17:56:30;6.70;99.90
6421;DHT22;3243;50.958;7.012;2023-02-28T17:58:58;4.00;99.90
6421;DHT22;3243;50.958;7.012;2023-02-28T18:01:25;3.90;99.90
6421;DHT22;3243;50.958;7.012;2023-02-28T18:03:55;3.90;99.90
6421;DHT22;3243;50.958;7.012;2023-02-28T18:08:51;5.70;99.90
6421;DHT22;3243;50.958;7.012;2023-02-28T18:11:19;3.80;99.90
6421;DHT22;3243;50.958;7.012;2023-02-28T18:13:49;3.80;99.90
6421;DHT22;3243;50.958;7.012;2023-02-28T18:16:18;3.80;99.90
6421;DHT22;3243;50.958;7.012;2023-02-28T18:18:45;3.80;99.90
6421;DHT22;3243;50.958;7.012;2023-02-28T18:21:13;3.70;99.90
6421;DHT22;3243;50.958;7.012;2023-02-28T18:23:41;3.50;99.90
6421;DHT22;3243;50.958;7.012;2023-02-28T18:26:17;3.50;99.90
6421;DHT22;3243;50.958;7.012;2023-02-28T18:28:45;3.60;99.90
6421;DHT22;3243;50.958;7.012;2023-02-28T18:31:17;3.60;99.90
6421;DHT22;3243;50.958;7.012;2023-02-28T18:33:48;3.50;99.90
6421;DHT22;3243;50.958;7.012;2023-02-28T18:36:16;3.50;99.90
6421;DHT22;3243;50.958;7.012;2023-02-28T18:38:43;3.50;99.90
6421;DHT22;3243;50.958;7.012;2023-02-28T18:41:11;3.50;99.90
6421;DHT22;3243;50.958;7.012;2023-02-28T18:43:39;3.50;99.90
6421;DHT22;3243;50.958;7.012;2023-02-28T18:46:08;3.40;99.90
6421;DHT22;3243;50.958;7.012;2023-02-28T18:48:36;6.00;99.90
6421;DHT22;3243;50.958;7.012;2023-02-28T18:51:23;3.30;99.90
6421;DHT22;3243;50.958;7.012;2023-02-28T18:53:51;3.10;99.90
6421;DHT22;3243;50.958;7.012;2023-02-28T18:56:21;3.20;99.90
6421;DHT22;3243;50.958;7.012;2023-02-28T18:58:49;3.10;99.90
6421;DHT22;3243;50.958;7.012;2023-02-28T19:01:22;3.10;99.90
6421;DHT22;3243;50.958;7.012;2023-02-28T19:03:50;3.00;99.90
6421;DHT22;3243;50.958;7.012;2023-02-28T19:06:23;3.00;99.90
6421;DHT22;3243;50.958;7.012;2023-02-28T19:08:55;3.00;99.90
6421;DHT22;3243;50.958;7.012;2023-02-28T19:11:24;3.00;99.90
6421;DHT22;3243;50.958;7.012;2023-02-28T19:13:51;3.00;99.90
6421;DHT22;3243;50.958;7.012;2023-02-28T19:16:20;2.90;99.90
6421;DHT22;3243;50.958;7.012;2023-02-28T19:18:47;2.80;99.90
6421;DHT22;3243;50.958;7.012;2023-02-28T19:21:16;2.90;99.90
6421;DHT22;3243;50.958;7.012;2023-02-28T19:23:44;2.70;99.90
6421;DHT22;3243;50.958;7.012;2023-02-28T19:26:19;2.70;99.90
6421;DHT22;3243;50.958;7.012;2023-02-28T19:28:47;2.70;99.90
6421;DHT22;3243;50.958;7.012;2023-02-28T19:31:16;2.60;99.90
6421;DHT22;3243;50.958;7.012;2023-02-28T19:33:44;2.60;99.90
6421;DHT22;3243;50.958;7.012;2023-02-28T19:36:11;2.60;99.90
6421;DHT22;3243;50.958;7.012;2023-02-28T19:38:39;2.60;99.90
6421;DHT22;3243;50.958;7.012;2023-02-28T19:41:09;2.60;99.90
6421;DHT22;3243;50.958;7.012;2023-02-28T19:43:36;2.40;99.90
6421;DHT22;3243;50.958;7.012;2023-02-28T19:46:04;2.50;99.90
6421;DHT22;3243;50.958;7.012;2023-02-28T19:48:31;2.30;99.90
6421;DHT22;3243;50.958;7.012;2023-02-28T19:51:00;2.40;99.90
6421;DHT22;3243;50.958;7.012;2023-02-28T19:53:31;2.20;99.90
6421;DHT22;3243;50.958;7.012;2023-02-28T19:55:59;2.20;99.90
6421;DHT22;3243;50.958;7.012;2023-02-28T19:58:26;2.10;99.90
6421;DHT22;3243;50.958;7.012;2023-02-28T20:00:53;2.00;99.90
6421;DHT22;3243;50.958;7.012;2023-02-28T20:03:20;2.00;99.90
6421;DHT22;3243;50.958;7.012;2023-02-28T20:06:01;1.90;99.90
6421;DHT22;3243;50.958;7.012;2023-02-28T20:08:28;1.90;99.90
6421;DHT22;3243;50.958;7.012;2023-02-28T20:11:01;1.80;99.90
6421;DHT22;3243;50.958;7.012;2023-02-28T20:16:07;1.80;99.90
6421;DHT22;3243;50.958;7.012;2023-02-28T20:18:36;1.90;99.90
6421;DHT22;3243;50.958;7.012;2023-02-28T20:21:04;1.90;99.90
6421;DHT22;3243;50.958;7.012;2023-02-28T20:23:31;1.80;99.90
6421;DHT22;3243;50.958;7.012;2023-02-28T20:26:01;1.90;99.90
6421;DHT22;3243;50.958;7.012;2023-02-28T20:28:28;1.90;99.90
6421;DHT22;3243;50.958;7.012;2023-02-28T20:30:55;1.90;99.90
6421;DHT22;3243;50.958;7.012;2023-02-28T20:33:22;1.90;99.90
6421;DHT22;3243;50.958;7.012;2023-02-28T20:35:57;1.90;99.90
6421;DHT22;3243;50.958;7.012;2023-02-28T20:38:24;1.90;99.90
6421;DHT22;3243;50.958;7.012;2023-02-28T20:40:57;2.20;99.90
6421;DHT22;3243;50.958;7.012;2023-02-28T20:43:25;1.80;99.90
6421;DHT22;3243;50.958;7.012;2023-02-28T20:45:54;1.70;99.90
6421;DHT22;3243;50.958;7.012;2023-02-28T20:48:24;1.70;99.90
6421;DHT22;3243;50.958;7.012;2023-02-28T20:50:52;1.70;99.90
6421;DHT22;3243;50.958;7.012;2023-02-28T20:53:20;1.70;99.90
6421;DHT22;3243;50.958;7.012;2023-02-28T20:55:58;1.70;99.90
6421;DHT22;3243;50.958;7.012;2023-02-28T20:58:29;1.70;99.90
6421;DHT22;3243;50.958;7.012;2023-02-28T21:01:03;1.70;99.90
6421;DHT22;3243;50.958;7.012;2023-02-28T21:03:30;1.60;99.90
6421;DHT22;3243;50.958;7.012;2023-02-28T21:06:01;1.60;99.90
6421;DHT22;3243;50.958;7.012;2023-02-28T21:08:28;1.60;99.90
6421;DHT22;3243;50.958;7.012;2023-02-28T21:10:55;1.60;99.90